createdAt,value
2022-08-20T00:00:25.484Z,78.40
2022-08-20T00:02:57.549Z,77.30
2022-08-20T00:05:42.133Z,77.60
2022-08-20T00:08:10.668Z,78.10
2022-08-20T00:10:47.702Z,78.20
2022-08-20T00:13:28.227Z,78.60
2022-08-20T00:15:59.630Z,79.00
2022-08-20T00:18:29.203Z,79.30
2022-08-20T00:21:01.310Z,79.70
2022-08-20T00:23:34.089Z,80.10
2022-08-20T00:26:01.645Z,80.40
2022-08-20T00:28:29.356Z,80.70
2022-08-20T00:31:00.166Z,81.10
2022-08-20T00:33:28.569Z,81.50
2022-08-20T00:36:06.667Z,81.80
2022-08-20T00:38:35.771Z,82.10
2022-08-20T00:41:04.828Z,82.40
2022-08-20T00:43:35.469Z,82.80
2022-08-20T00:46:05.328Z,83.10
2022-08-20T00:48:34.979Z,85.10
2022-08-20T00:51:29.976Z,83.20
2022-08-20T00:54:10.484Z,83.90
2022-08-20T00:56:39.104Z,84.10
2022-08-20T00:59:16.954Z,84.50
2022-08-20T01:01:55.749Z,85.00
2022-08-20T01:04:33.859Z,85.10
2022-08-20T01:07:07.986Z,86.00
2022-08-20T01:09:57.420Z,86.20
2022-08-20T01:12:34.781Z,86.30
2022-08-20T01:15:05.346Z,86.80
2022-08-20T01:17:36.413Z,87.30
2022-08-20T01:20:15.774Z,87.80
2022-08-20T01:23:08.515Z,88.20
2022-08-20T01:25:48.946Z,88.50
2022-08-20T01:28:21.154Z,89.20
2022-08-20T01:30:49.076Z,89.30
2022-08-20T01:33:22.174Z,89.80
2022-08-20T01:35:50.635Z,90.10
2022-08-20T01:38:18.605Z,90.20
2022-08-20T01:40:57.804Z,90.40
2022-08-20T01:43:28.864Z,90.60
2022-08-20T01:46:01.376Z,90.80
2022-08-20T01:48:34.271Z,90.90
2022-08-20T01:51:22.455Z,91.10
2022-08-20T01:53:56.860Z,91.60
2022-08-20T01:56:29.751Z,91.50
2022-08-20T01:58:59.966Z,91.70
2022-08-20T02:01:46.717Z,91.90
2022-08-20T02:04:16.826Z,92.20
2022-08-20T02:06:57.304Z,92.20
2022-08-20T02:09:28.508Z,92.40
2022-08-20T02:11:57.727Z,92.50
2022-08-20T02:14:28.948Z,92.70
2022-08-20T02:16:58.539Z,92.80
2022-08-20T02:19:34.535Z,93.00
2022-08-20T02:22:19.245Z,93.10
2022-08-20T02:24:48.032Z,93.30
2022-08-20T02:27:15.955Z,93.60
2022-08-20T02:29:43.750Z,93.70
2022-08-20T02:32:24.809Z,93.90
2022-08-20T02:35:07.537Z,94.10
2022-08-20T02:37:37.307Z,94.20
2022-08-20T02:40:08.260Z,94.40
2022-08-20T02:42:38.997Z,94.60
2022-08-20T02:45:16.585Z,94.70
2022-08-20T02:47:47.065Z,95.60
2022-08-20T02:50:20.205Z,94.80
2022-08-20T02:52:52.048Z,94.90
2022-08-20T02:55:25.972Z,95.20
2022-08-20T02:58:00.244Z,95.40
2022-08-20T03:00:32.208Z,95.50
2022-08-20T03:03:11.354Z,95.60
2022-08-20T03:05:45.201Z,95.70
2022-08-20T03:08:14.978Z,95.90
2022-08-20T03:10:45.646Z,96.10
2022-08-20T03:13:13.769Z,96.20
2022-08-20T03:15:45.316Z,97.10
2022-08-20T03:18:13.588Z,96.30
2022-08-20T03:20:45.962Z,96.50
2022-08-20T03:23:17.718Z,96.60
2022-08-20T03:25:49.005Z,96.70
2022-08-20T03:28:21.246Z,96.80
2022-08-20T03:30:57.266Z,97.00
2022-08-20T03:33:25.243Z,97.10
2022-08-20T03:35:53.180Z,97.30
2022-08-20T03:38:32.894Z,97.40
2022-08-20T03:41:03.076Z,97.50
2022-08-20T03:43:31.092Z,97.70
2022-08-20T03:46:04.348Z,97.70
2022-08-20T03:48:32.136Z,97.70
2022-08-20T03:51:03.680Z,97.80
2022-08-20T03:53:32.396Z,98.00
2022-08-20T03:56:04.550Z,98.10
2022-08-20T03:58:36.800Z,98.20
2022-08-20T04:01:06.745Z,98.30
2022-08-20T04:03:35.618Z,98.30
2022-08-20T04:06:07.318Z,98.50
2022-08-20T04:08:35.657Z,98.50
2022-08-20T04:11:03.758Z,98.60
2022-08-20T04:13:31.805Z,98.70
2022-08-20T04:16:05.450Z,98.80
2022-08-20T04:18:38.104Z,98.90
2022-08-20T04:21:06.556Z,99.00
2022-08-20T04:23:34.252Z,99.10
2022-08-20T04:26:02.154Z,99.10
2022-08-20T04:28:30.129Z,99.20
2022-08-20T04:31:02.788Z,99.30
2022-08-20T04:33:33.470Z,99.30
2022-08-20T04:36:06.405Z,99.40
2022-08-20T04:38:50.428Z,99.50
2022-08-20T04:41:24.202Z,99.60
2022-08-20T04:43:57.015Z,99.60
2022-08-20T04:46:28.854Z,99.70
2022-08-20T04:48:59.407Z,99.80
2022-08-20T04:51:27.768Z,99.80
2022-08-20T04:54:02.597Z,99.90
2022-08-20T04:56:39.286Z,99.90
2022-08-20T04:59:07.495Z,99.90
2022-08-20T05:01:35.948Z,99.90
2022-08-20T05:04:03.987Z,99.90
2022-08-20T05:06:33.417Z,99.90
2022-08-20T05:09:03.274Z,99.90
2022-08-20T05:11:35.979Z,99.90
2022-08-20T05:14:09.720Z,99.90
2022-08-20T05:16:39.566Z,99.90
2022-08-20T05:19:15.937Z,99.90
2022-08-20T05:21:43.860Z,99.90
2022-08-20T05:24:17.549Z,99.90
2022-08-20T05:26:45.705Z,99.90
2022-08-20T05:29:13.415Z,99.90
2022-08-20T05:31:42.349Z,99.90
2022-08-20T05:34:12.914Z,99.90
2022-08-20T05:36:43.689Z,99.90
2022-08-20T05:39:16.123Z,99.90
2022-08-20T05:41:46.780Z,99.90
2022-08-20T05:44:15.093Z,99.90
2022-08-20T05:46:47.954Z,99.90
2022-08-20T05:49:22.347Z,99.90
2022-08-20T05:51:53.516Z,99.90
2022-08-20T05:54:24.104Z,99.90
2022-08-20T05:56:51.722Z,99.90
2022-08-20T05:59:24.062Z,99.90
2022-08-20T06:01:53.343Z,99.90
2022-08-20T06:04:28.736Z,99.90
2022-08-20T06:07:02.113Z,99.90
2022-08-20T06:09:32.475Z,99.90
2022-08-20T06:12:03.355Z,99.90
2022-08-20T06:14:37.493Z,99.90
2022-08-20T06:17:15.570Z,99.90
2022-08-20T06:19:46.866Z,99.90
2022-08-20T06:22:22.032Z,99.90
2022-08-20T06:24:56.350Z,99.90
2022-08-20T06:27:29.192Z,99.90
2022-08-20T06:29:57.127Z,99.90
2022-08-20T06:32:31.723Z,99.90
2022-08-20T06:35:20.141Z,99.90
2022-08-20T06:37:55.119Z,99.10
2022-08-20T06:40:28.818Z,99.20
2022-08-20T06:42:58.254Z,98.90
2022-08-20T06:45:33.606Z,98.70
2022-08-20T06:48:08.255Z,98.60
2022-08-20T06:50:47.318Z,98.40
2022-08-20T06:53:19.245Z,98.20
2022-08-20T06:55:53.671Z,97.80
2022-08-20T06:58:36.604Z,97.20
2022-08-20T07:01:12.219Z,97.30
2022-08-20T07:03:54.210Z,97.00
2022-08-20T07:06:30.271Z,96.80
2022-08-20T07:08:58.342Z,96.40
2022-08-20T07:11:29.099Z,96.00
2022-08-20T07:13:58.795Z,95.50
2022-08-20T07:16:28.289Z,93.50
2022-08-20T07:18:56.381Z,95.00
2022-08-20T07:21:24.589Z,94.70
2022-08-20T07:23:53.182Z,94.50
2022-08-20T07:26:21.040Z,93.90
2022-08-20T07:28:49.267Z,93.60
2022-08-20T07:31:36.047Z,93.20
2022-08-20T07:34:04.822Z,92.90
2022-08-20T07:36:32.845Z,92.60
2022-08-20T07:39:06.203Z,92.30
2022-08-20T07:41:37.612Z,92.10
2022-08-20T07:44:05.990Z,91.40
2022-08-20T07:46:33.666Z,91.30
2022-08-20T07:49:04.360Z,90.90
2022-08-20T07:51:31.961Z,90.40
2022-08-20T07:54:00.207Z,90.00
2022-08-20T07:56:28.008Z,89.50
2022-08-20T07:58:59.210Z,88.20
2022-08-20T08:01:30.473Z,86.50
2022-08-20T08:03:59.384Z,86.40
2022-08-20T08:06:29.569Z,86.00
2022-08-20T08:09:09.798Z,85.20
2022-08-20T08:11:47.394Z,83.30
2022-08-20T08:14:23.803Z,84.10
2022-08-20T08:16:54.620Z,83.20
2022-08-20T08:19:22.584Z,82.20
2022-08-20T08:21:50.290Z,81.50
2022-08-20T08:24:21.033Z,80.50
2022-08-20T08:26:50.839Z,79.50
2022-08-20T08:29:18.597Z,78.20
2022-08-20T08:31:46.323Z,77.20
2022-08-20T08:34:20.217Z,76.20
2022-08-20T08:36:48.008Z,75.70
2022-08-20T08:39:16.495Z,75.00
2022-08-20T08:41:52.163Z,73.00
2022-08-20T08:44:27.381Z,70.90
2022-08-20T08:47:18.479Z,71.80
2022-08-20T08:49:52.074Z,71.20
2022-08-20T08:52:29.995Z,70.50
2022-08-20T08:55:05.610Z,70.20
2022-08-20T08:57:33.904Z,70.10
2022-08-20T09:00:12.309Z,69.00
2022-08-20T09:02:42.604Z,66.40
2022-08-20T09:05:17.196Z,67.80
2022-08-20T09:07:49.822Z,66.90
2022-08-20T09:10:20.779Z,66.90
2022-08-20T09:12:52.420Z,67.50
2022-08-20T09:15:21.428Z,66.80
2022-08-20T09:17:49.545Z,66.90
2022-08-20T09:20:19.936Z,66.40
2022-08-20T09:22:58.256Z,65.50
2022-08-20T09:25:28.461Z,65.80
2022-08-20T09:27:59.183Z,65.50
2022-08-20T09:30:27.573Z,65.70
2022-08-20T09:32:55.514Z,65.80
2022-08-20T09:35:23.502Z,66.50
2022-08-20T09:37:52.819Z,66.50
2022-08-20T09:40:24.235Z,66.10
2022-08-20T09:42:52.695Z,65.30
2022-08-20T09:45:21.946Z,64.80
2022-08-20T09:47:55.419Z,64.90
2022-08-20T09:50:36.370Z,65.40
2022-08-20T09:53:06.770Z,66.10
2022-08-20T09:55:36.337Z,66.40
2022-08-20T09:58:27.677Z,66.80
2022-08-20T10:00:55.813Z,67.00
2022-08-20T10:03:23.651Z,67.20
2022-08-20T10:05:55.587Z,67.60
2022-08-20T10:08:23.948Z,67.90
2022-08-20T10:10:52.193Z,67.90
2022-08-20T10:13:22.904Z,68.20
2022-08-20T10:15:51.025Z,68.50
2022-08-20T10:18:21.469Z,68.70
2022-08-20T10:21:02.109Z,69.70
2022-08-20T10:23:29.927Z,69.20
2022-08-20T10:26:02.426Z,69.50
2022-08-20T10:28:30.780Z,69.60
2022-08-20T10:30:58.435Z,69.90
2022-08-20T10:33:26.202Z,69.60
2022-08-20T10:35:59.712Z,69.10
2022-08-20T10:38:27.635Z,68.60
2022-08-20T10:40:58.539Z,68.20
2022-08-20T10:43:26.303Z,68.10
2022-08-20T10:45:54.605Z,67.60
2022-08-20T10:48:29.256Z,67.00
2022-08-20T10:51:00.382Z,67.00
2022-08-20T10:53:29.289Z,67.10
2022-08-20T10:56:01.253Z,67.30
2022-08-20T10:58:39.774Z,67.70
2022-08-20T11:01:09.124Z,68.00
2022-08-20T11:03:36.997Z,68.00
2022-08-20T11:06:05.025Z,68.20
2022-08-20T11:08:34.395Z,68.40
2022-08-20T11:11:07.634Z,68.60
2022-08-20T11:13:36.283Z,68.90
2022-08-20T11:16:05.183Z,69.60
2022-08-20T11:18:33.359Z,69.10
2022-08-20T11:21:03.989Z,68.60
2022-08-20T11:23:31.614Z,67.50
2022-08-20T11:26:01.020Z,65.40
2022-08-20T11:28:32.297Z,62.30
2022-08-20T11:31:01.631Z,60.80
2022-08-20T11:33:31.688Z,61.30
2022-08-20T11:36:03.793Z,61.90
2022-08-20T11:38:36.362Z,61.00
2022-08-20T11:41:09.976Z,62.60
2022-08-20T11:43:37.663Z,61.00
2022-08-20T11:46:07.830Z,60.10
2022-08-20T11:48:35.593Z,59.50
2022-08-20T11:51:04.530Z,59.00
2022-08-20T11:53:32.251Z,58.90
2022-08-20T11:56:02.111Z,57.70
2022-08-20T11:58:37.168Z,56.80
2022-08-20T12:01:04.989Z,56.70
2022-08-20T12:03:33.278Z,57.20
2022-08-20T12:06:03.112Z,56.30
2022-08-20T12:08:31.973Z,56.40
2022-08-20T12:11:02.281Z,56.00
2022-08-20T12:13:48.857Z,56.10
2022-08-20T12:16:22.440Z,56.50
2022-08-20T12:18:50.179Z,56.80
2022-08-20T12:21:20.066Z,57.90
2022-08-20T12:23:47.634Z,56.40
2022-08-20T12:26:16.820Z,56.90
2022-08-20T12:28:44.520Z,56.30
2022-08-20T12:31:18.250Z,56.30
2022-08-20T12:33:46.797Z,56.50
2022-08-20T12:36:14.962Z,54.10
2022-08-20T12:38:42.646Z,54.80
2022-08-20T12:41:11.736Z,54.40
2022-08-20T12:43:42.190Z,54.60
2022-08-20T12:46:09.884Z,54.70
2022-08-20T12:48:37.641Z,55.30
2022-08-20T12:51:07.378Z,55.50
2022-08-20T12:53:40.667Z,55.70
2022-08-20T12:56:08.507Z,56.10
2022-08-20T12:58:36.723Z,56.30
2022-08-20T13:01:04.449Z,56.60
2022-08-20T13:03:44.866Z,57.00
2022-08-20T13:06:16.792Z,57.50
2022-08-20T13:08:44.489Z,57.60
2022-08-20T13:11:12.137Z,57.70
2022-08-20T13:13:39.787Z,58.00
2022-08-20T13:16:07.588Z,58.10
2022-08-20T13:18:37.730Z,58.30
2022-08-20T13:21:05.513Z,58.30
2022-08-20T13:23:34.470Z,57.90
2022-08-20T13:26:03.365Z,57.60
2022-08-20T13:28:34.687Z,57.50
2022-08-20T13:31:02.632Z,57.60
2022-08-20T13:33:30.717Z,57.90
2022-08-20T13:36:02.543Z,58.40
2022-08-20T13:38:31.514Z,58.60
2022-08-20T13:40:59.143Z,58.80
2022-08-20T13:43:27.001Z,59.00
2022-08-20T13:45:54.740Z,59.30
2022-08-20T13:48:22.478Z,59.30
2022-08-20T13:50:50.187Z,59.20
2022-08-20T13:53:18.262Z,59.00
2022-08-20T13:55:46.598Z,59.00
2022-08-20T13:58:14.477Z,58.70
2022-08-20T14:00:42.533Z,58.90
2022-08-20T14:03:13.896Z,57.80
2022-08-20T14:05:48.081Z,58.50
2022-08-20T14:08:24.075Z,58.40
2022-08-20T14:10:52.094Z,58.50
2022-08-20T14:13:22.951Z,58.40
2022-08-20T14:15:51.293Z,58.20
2022-08-20T14:18:19.940Z,57.90
2022-08-20T14:20:47.643Z,58.00
2022-08-20T14:23:16.067Z,56.90
2022-08-20T14:25:52.033Z,57.40
2022-08-20T14:28:23.906Z,56.70
2022-08-20T14:30:52.939Z,57.10
2022-08-20T14:33:24.572Z,57.30
2022-08-20T14:35:53.033Z,57.10
2022-08-20T14:38:20.794Z,57.00
2022-08-20T14:40:50.624Z,56.80
2022-08-20T14:43:18.966Z,56.50
2022-08-20T14:45:47.116Z,56.20
2022-08-20T14:48:15.120Z,55.70
2022-08-20T14:50:44.260Z,55.80
2022-08-20T14:53:11.956Z,54.80
2022-08-20T14:55:39.760Z,55.70
2022-08-20T14:58:14.696Z,55.80
2022-08-20T15:00:44.136Z,54.70
2022-08-20T15:03:13.548Z,53.90
2022-08-20T15:05:45.659Z,54.70
2022-08-20T15:08:17.677Z,54.40
2022-08-20T15:10:47.942Z,52.40
2022-08-20T15:13:16.730Z,54.00
2022-08-20T15:15:45.013Z,53.60
2022-08-20T15:18:17.328Z,53.40
2022-08-20T15:20:51.614Z,54.00
2022-08-20T15:23:23.137Z,53.90
2022-08-20T15:25:57.054Z,54.00
2022-08-20T15:28:24.759Z,53.50
2022-08-20T15:30:58.435Z,53.70
2022-08-20T15:33:28.621Z,53.50
2022-08-20T15:35:58.944Z,53.30
2022-08-20T15:38:29.174Z,52.70
2022-08-20T15:41:01.790Z,52.70
2022-08-20T15:43:33.615Z,52.30
2022-08-20T15:46:07.207Z,52.30
2022-08-20T15:48:42.654Z,52.30
2022-08-20T15:51:10.451Z,51.80
2022-08-20T15:54:16.426Z,52.00
2022-08-20T15:56:50.105Z,51.40
2022-08-20T15:59:45.041Z,52.50
2022-08-20T16:02:33.743Z,53.00
2022-08-20T16:05:29.618Z,54.00
2022-08-20T16:08:27.852Z,54.10
2022-08-20T16:11:25.258Z,55.00
2022-08-20T16:14:13.872Z,55.50
2022-08-20T16:16:48.585Z,55.80
2022-08-20T16:19:26.593Z,55.80
2022-08-20T16:21:58.261Z,56.60
2022-08-20T16:24:28.828Z,56.90
2022-08-20T16:27:13.459Z,56.90
2022-08-20T16:30:06.721Z,57.70
2022-08-20T16:32:42.395Z,58.40
2022-08-20T16:35:13.194Z,58.10
2022-08-20T16:38:11.146Z,59.00
2022-08-20T16:40:49.503Z,60.60
2022-08-20T16:43:55.706Z,60.00
2022-08-20T16:46:37.513Z,62.60
2022-08-20T16:49:16.103Z,62.70
2022-08-20T16:51:52.458Z,63.30
2022-08-20T16:54:28.265Z,63.50
2022-08-20T16:57:07.608Z,63.30
2022-08-20T16:59:55.713Z,63.40
2022-08-20T17:02:31.055Z,63.30
2022-08-20T17:05:02.821Z,62.50
2022-08-20T17:07:59.019Z,62.90
2022-08-20T17:10:29.634Z,63.80
2022-08-20T17:13:03.743Z,64.60
2022-08-20T17:15:36.373Z,63.40
2022-08-20T17:18:33.815Z,64.30
2022-08-20T17:21:24.723Z,64.80
2022-08-20T17:23:57.168Z,66.10
2022-08-20T17:26:37.260Z,64.80
2022-08-20T17:29:13.827Z,66.20
2022-08-20T17:31:52.014Z,67.40
2022-08-20T17:34:21.752Z,67.20
2022-08-20T17:37:18.891Z,68.00
2022-08-20T17:39:50.361Z,67.50
2022-08-20T17:42:25.472Z,67.30
2022-08-20T17:45:08.178Z,69.10
2022-08-20T17:47:40.097Z,67.70
2022-08-20T17:50:17.798Z,68.50
2022-08-20T17:52:56.343Z,69.50
2022-08-20T17:55:25.469Z,69.10
2022-08-20T17:57:57.020Z,68.80
2022-08-20T18:00:28.015Z,69.40
2022-08-20T18:03:01.993Z,69.60
2022-08-20T18:05:36.224Z,70.00
2022-08-20T18:08:08.228Z,69.80
2022-08-20T18:10:57.193Z,70.00
2022-08-20T18:13:35.722Z,70.40
2022-08-20T18:16:24.177Z,72.10
2022-08-20T18:19:17.388Z,71.00
2022-08-20T18:22:26.715Z,71.90
2022-08-20T18:25:03.644Z,72.80
2022-08-20T18:27:42.019Z,71.40
2022-08-20T18:30:24.751Z,71.90
2022-08-20T18:33:08.314Z,73.30
2022-08-20T18:35:45.920Z,73.20
2022-08-20T18:38:23.221Z,72.60
2022-08-20T18:40:55.266Z,73.60
2022-08-20T18:43:32.276Z,73.20
2022-08-20T18:46:32.182Z,75.30
2022-08-20T18:49:06.936Z,75.40
2022-08-20T18:51:50.453Z,74.40
2022-08-20T18:54:30.509Z,76.00
2022-08-20T18:57:07.345Z,75.50
2022-08-20T18:59:51.344Z,75.70
2022-08-20T19:02:25.739Z,76.00
2022-08-20T19:04:59.709Z,76.30
2022-08-20T19:07:51.829Z,75.70
2022-08-20T19:10:49.447Z,76.30
2022-08-20T19:13:20.394Z,77.10
2022-08-20T19:15:56.842Z,77.10
2022-08-20T19:18:45.963Z,76.40
2022-08-20T19:21:21.636Z,77.00
2022-08-20T19:23:53.990Z,76.70
2022-08-20T19:26:26.189Z,76.70
2022-08-20T19:29:24.880Z,76.80
2022-08-20T19:32:04.571Z,76.60
2022-08-20T19:34:34.989Z,76.90
2022-08-20T19:37:10.116Z,77.20
2022-08-20T19:39:53.240Z,78.40
2022-08-20T19:42:25.197Z,77.70
2022-08-20T19:45:03.043Z,77.40
2022-08-20T19:47:37.024Z,78.20
2022-08-20T19:50:26.431Z,78.10
2022-08-20T19:53:17.605Z,80.00
2022-08-20T19:56:01.154Z,79.50
2022-08-20T19:58:29.634Z,80.80
2022-08-20T20:00:58.517Z,80.30
2022-08-20T20:03:32.792Z,79.00
2022-08-20T20:06:24.807Z,79.60
2022-08-20T20:09:28.419Z,80.70
2022-08-20T20:12:22.667Z,81.60
2022-08-20T20:14:57.006Z,80.90
2022-08-20T20:17:29.426Z,81.40
2022-08-20T20:20:00.250Z,83.90
2022-08-20T20:22:47.005Z,82.00
2022-08-20T20:25:20.520Z,82.20
2022-08-20T20:27:54.258Z,83.70
2022-08-20T20:30:32.162Z,84.20
2022-08-20T20:33:18.651Z,83.90
2022-08-20T20:36:04.823Z,84.90
2022-08-20T20:38:42.471Z,84.30
2022-08-20T20:41:22.065Z,84.20
2022-08-20T20:44:04.090Z,85.00
2022-08-20T20:46:33.584Z,86.50
2022-08-20T20:49:10.476Z,87.70
2022-08-20T20:51:56.939Z,85.70
2022-08-20T20:54:27.301Z,87.40
2022-08-20T20:57:37.874Z,86.50
2022-08-20T21:00:16.694Z,89.70
2022-08-20T21:02:45.778Z,87.70
2022-08-20T21:05:16.510Z,88.20
2022-08-20T21:07:59.335Z,88.80
2022-08-20T21:10:32.871Z,90.30
2022-08-20T21:13:05.840Z,90.50
2022-08-20T21:15:37.381Z,90.30
2022-08-20T21:18:11.093Z,90.80
2022-08-20T21:20:43.875Z,90.80
2022-08-20T21:23:14.467Z,90.80
2022-08-20T21:25:44.143Z,91.20
2022-08-20T21:28:12.277Z,91.40
2022-08-20T21:30:42.045Z,91.80
2022-08-20T21:33:10.050Z,91.80
2022-08-20T21:35:37.960Z,92.10
2022-08-20T21:38:19.145Z,92.60
2022-08-20T21:40:48.327Z,92.90
2022-08-20T21:43:16.318Z,93.60
2022-08-20T21:45:50.965Z,93.30
2022-08-20T21:48:20.004Z,93.30
2022-08-20T21:50:50.242Z,93.70
2022-08-20T21:53:18.121Z,93.60
2022-08-20T21:55:48.865Z,93.80
2022-08-20T21:58:18.084Z,93.80
2022-08-20T22:01:05.503Z,94.10
2022-08-20T22:03:38.542Z,94.30
2022-08-20T22:06:09.091Z,94.50
2022-08-20T22:08:37.375Z,94.50
2022-08-20T22:11:09.471Z,94.60
2022-08-20T22:13:39.576Z,94.70
2022-08-20T22:16:13.986Z,96.10
2022-08-20T22:18:45.939Z,95.10
2022-08-20T22:21:34.527Z,95.10
2022-08-20T22:24:06.067Z,95.50
2022-08-20T22:26:39.926Z,95.60
2022-08-20T22:29:10.434Z,95.50
2022-08-20T22:31:40.031Z,95.80
2022-08-20T22:34:10.600Z,96.50
2022-08-20T22:36:39.167Z,95.70
2022-08-20T22:39:07.421Z,95.80
2022-08-20T22:41:39.067Z,95.90
2022-08-20T22:44:10.092Z,96.00
2022-08-20T22:46:44.951Z,96.10
2022-08-20T22:49:18.687Z,96.20
2022-08-20T22:51:50.772Z,96.40
2022-08-20T22:54:25.232Z,96.50
2022-08-20T22:56:54.365Z,96.60
2022-08-20T22:59:23.830Z,96.70
2022-08-20T23:01:56.656Z,96.80
2022-08-20T23:04:33.581Z,96.90
2022-08-20T23:07:20.876Z,97.00
2022-08-20T23:09:52.526Z,97.00
2022-08-20T23:12:32.687Z,97.20
2022-08-20T23:15:12.110Z,97.20
2022-08-20T23:17:40.786Z,97.20
2022-08-20T23:20:12.634Z,97.30
2022-08-20T23:22:41.290Z,97.40
2022-08-20T23:25:11.220Z,97.50
2022-08-20T23:27:44.966Z,97.60
2022-08-20T23:30:15.941Z,97.70
2022-08-20T23:32:44.019Z,97.60
2022-08-20T23:35:13.082Z,97.70
2022-08-20T23:37:45.417Z,97.80
2022-08-20T23:40:15.313Z,97.80
2022-08-20T23:42:43.356Z,97.90
2022-08-20T23:45:12.156Z,97.90
2022-08-20T23:47:40.802Z,97.90
2022-08-20T23:50:12.119Z,98.00
2022-08-20T23:52:41.574Z,98.00
2022-08-20T23:55:09.854Z,98.00
2022-08-20T23:57:42.005Z,98.20
